createdAt,value
2023-04-22T00:00:17.165Z,55.35
2023-04-22T00:02:45.799Z,64.40
2023-04-22T00:05:17.064Z,64.50
2023-04-22T00:07:47.862Z,66.82
2023-04-22T00:10:20.143Z,64.18
2023-04-22T00:12:48.666Z,65.78
2023-04-22T00:15:20.236Z,70.00
2023-04-22T00:17:48.757Z,76.90
2023-04-22T00:20:17.499Z,71.43
2023-04-22T00:22:45.799Z,72.32
2023-04-22T00:25:14.275Z,68.35
2023-04-22T00:27:45.143Z,66.80
2023-04-22T00:30:14.264Z,68.47
2023-04-22T00:32:42.568Z,71.22
2023-04-22T00:35:11.077Z,81.18
2023-04-22T00:37:39.462Z,85.07
2023-04-22T00:40:09.275Z,79.32
2023-04-22T00:42:38.775Z,74.15
2023-04-22T00:45:14.860Z,69.18
2023-04-22T00:47:43.375Z,70.10
2023-04-22T00:50:12.015Z,72.80
2023-04-22T00:52:40.729Z,74.90
2023-04-22T00:55:10.197Z,75.68
2023-04-22T00:57:39.473Z,72.60
2023-04-22T01:00:11.102Z,69.18
2023-04-22T01:02:40.753Z,68.78
2023-04-22T01:05:10.624Z,67.53
2023-04-22T01:07:38.981Z,67.32
2023-04-22T01:10:08.612Z,72.32
2023-04-22T01:12:37.047Z,70.03
2023-04-22T01:15:06.721Z,70.57
2023-04-22T01:17:36.871Z,72.80
2023-04-22T01:20:06.156Z,75.82
2023-04-22T01:22:40.615Z,78.13
2023-04-22T01:25:11.226Z,79.68
2023-04-22T01:27:40.765Z,85.40
2023-04-22T01:30:11.007Z,86.60
2023-04-22T01:32:41.223Z,81.00
2023-04-22T01:35:10.255Z,77.35
2023-04-22T01:37:39.075Z,77.53
2023-04-22T01:40:10.383Z,75.80
2023-04-22T01:42:40.662Z,84.57
2023-04-22T01:45:10.099Z,79.00
2023-04-22T01:47:38.437Z,76.10
2023-04-22T01:50:07.982Z,81.10
2023-04-22T01:52:38.290Z,78.32
2023-04-22T01:55:07.883Z,73.10
2023-04-22T01:57:36.234Z,77.50
2023-04-22T02:00:08.315Z,74.15
2023-04-22T02:02:37.754Z,70.93
2023-04-22T02:05:07.835Z,74.82
2023-04-22T02:07:37.360Z,76.82
2023-04-22T02:10:06.410Z,82.10
2023-04-22T02:12:34.739Z,91.38
2023-04-22T02:15:03.190Z,79.43
2023-04-22T02:17:34.344Z,78.80
2023-04-22T02:20:02.768Z,80.50
2023-04-22T02:22:31.149Z,91.55
2023-04-22T02:24:59.572Z,104.03
2023-04-22T02:27:27.915Z,110.95
2023-04-22T02:29:56.281Z,125.75
2023-04-22T02:32:24.773Z,133.70
2023-04-22T02:34:54.522Z,131.52
2023-04-22T02:37:23.876Z,143.23
2023-04-22T02:39:52.195Z,154.05
2023-04-22T02:42:20.503Z,162.32
2023-04-22T02:44:48.966Z,143.45
2023-04-22T02:47:17.926Z,188.02
2023-04-22T02:49:46.199Z,170.52
2023-04-22T02:52:15.941Z,148.25
2023-04-22T02:54:44.280Z,109.80
2023-04-22T02:57:12.605Z,175.20
2023-04-22T02:59:41.037Z,114.25
2023-04-22T03:02:10.772Z,119.78
2023-04-22T03:04:39.174Z,133.30
2023-04-22T03:07:07.679Z,118.43
2023-04-22T03:09:37.800Z,106.10
2023-04-22T03:12:06.571Z,103.03
2023-04-22T03:14:34.891Z,115.28
2023-04-22T03:17:03.376Z,116.20
2023-04-22T03:19:31.768Z,112.43
2023-04-22T03:22:00.395Z,108.78
2023-04-22T03:24:28.797Z,108.22
2023-04-22T03:26:58.646Z,104.35
2023-04-22T03:29:26.933Z,118.55
2023-04-22T03:31:55.430Z,117.57
2023-04-22T03:34:23.800Z,93.60
2023-04-22T03:36:52.213Z,103.63
2023-04-22T03:39:20.768Z,108.68
2023-04-22T03:41:49.073Z,108.85
2023-04-22T03:44:18.865Z,105.90
2023-04-22T03:46:47.276Z,114.82
2023-04-22T03:49:16.215Z,108.85
2023-04-22T03:51:44.619Z,114.13
2023-04-22T03:54:13.121Z,128.88
2023-04-22T03:56:41.599Z,107.43
2023-04-22T03:59:09.956Z,103.80
2023-04-22T04:01:39.715Z,102.20
2023-04-22T04:04:08.298Z,104.22
2023-04-22T04:06:36.877Z,95.03
2023-04-22T04:09:07.582Z,111.93
2023-04-22T04:11:35.985Z,108.85
2023-04-22T04:14:04.597Z,95.82
2023-04-22T04:16:33.156Z,104.72
2023-04-22T04:19:02.986Z,99.68
2023-04-22T04:21:33.517Z,142.10
2023-04-22T04:24:02.040Z,105.82
2023-04-22T04:26:30.732Z,98.22
2023-04-22T04:28:59.629Z,109.47
2023-04-22T04:31:28.178Z,120.53
2023-04-22T04:33:57.391Z,119.30
2023-04-22T04:36:29.471Z,108.65
2023-04-22T04:38:57.935Z,109.45
2023-04-22T04:41:28.198Z,93.90
2023-04-22T04:43:56.630Z,113.05
2023-04-22T04:46:25.105Z,114.60
2023-04-22T04:48:54.081Z,110.80
2023-04-22T04:51:26.722Z,101.88
2023-04-22T04:53:55.134Z,101.80
2023-04-22T04:56:23.810Z,92.38
2023-04-22T04:58:52.168Z,122.75
2023-04-22T05:01:20.910Z,105.72
2023-04-22T05:03:49.619Z,86.50
2023-04-22T05:06:18.028Z,100.25
2023-04-22T05:08:47.849Z,96.47
2023-04-22T05:11:16.232Z,87.25
2023-04-22T05:13:44.542Z,84.63
2023-04-22T05:16:13.275Z,90.70
2023-04-22T05:18:41.571Z,94.72
2023-04-22T05:21:09.906Z,93.10
2023-04-22T05:23:38.267Z,127.53
2023-04-22T05:26:07.959Z,127.70
2023-04-22T05:28:36.469Z,141.70
2023-04-22T05:31:04.873Z,86.25
2023-04-22T05:33:33.239Z,73.80
2023-04-22T05:36:01.558Z,87.43
2023-04-22T05:38:30.017Z,76.55
2023-04-22T05:40:58.374Z,78.20
2023-04-22T05:43:28.064Z,96.70
2023-04-22T05:45:56.593Z,78.30
2023-04-22T05:48:24.933Z,73.32
2023-04-22T05:50:55.720Z,72.40
2023-04-22T05:53:24.315Z,78.93
2023-04-22T05:55:52.702Z,77.00
2023-04-22T05:58:21.112Z,72.95
2023-04-22T06:00:50.943Z,77.50
2023-04-22T06:03:19.775Z,78.00
2023-04-22T06:05:48.562Z,75.13
2023-04-22T06:08:17.001Z,76.43
2023-04-22T06:10:45.784Z,71.50
2023-04-22T06:13:14.150Z,76.90
2023-04-22T06:15:42.626Z,66.78
2023-04-22T06:18:12.399Z,69.45
2023-04-22T06:20:41.004Z,72.05
2023-04-22T06:23:09.273Z,71.13
2023-04-22T06:25:37.911Z,72.32
2023-04-22T06:28:06.553Z,72.18
2023-04-22T06:30:35.165Z,67.45
2023-04-22T06:33:03.839Z,68.53
2023-04-22T06:35:34.044Z,64.10
2023-04-22T06:38:02.741Z,64.72
2023-04-22T06:40:31.378Z,57.40
2023-04-22T06:43:00.134Z,60.72
2023-04-22T06:45:28.764Z,60.35
2023-04-22T06:47:57.577Z,59.58
2023-04-22T06:50:26.344Z,62.58
2023-04-22T06:52:56.397Z,62.47
2023-04-22T06:55:25.011Z,63.15
2023-04-22T06:57:53.476Z,85.15
2023-04-22T07:00:21.844Z,88.90
2023-04-22T07:02:50.584Z,86.82
2023-04-22T07:05:19.522Z,84.63
2023-04-22T07:07:48.407Z,80.20
2023-04-22T07:10:18.359Z,75.43
2023-04-22T07:12:47.025Z,78.90
2023-04-22T07:15:15.310Z,67.20
2023-04-22T07:17:44.245Z,62.60
2023-04-22T07:20:13.385Z,62.10
2023-04-22T07:22:41.770Z,63.45
2023-04-22T07:25:11.099Z,63.03
2023-04-22T07:27:40.930Z,61.17
2023-04-22T07:30:10.229Z,59.65
2023-04-22T07:32:38.840Z,59.83
2023-04-22T07:35:08.012Z,60.88
2023-04-22T07:37:36.567Z,56.65
2023-04-22T07:40:05.979Z,57.60
2023-04-22T07:42:34.638Z,56.13
2023-04-22T07:45:04.570Z,52.00
2023-04-22T07:47:33.261Z,50.75
2023-04-22T07:50:02.947Z,53.22
2023-04-22T07:52:31.614Z,52.92
2023-04-22T07:55:00.191Z,57.97
2023-04-22T07:57:28.840Z,55.25
2023-04-22T07:59:58.509Z,46.17
2023-04-22T08:02:28.525Z,49.55
2023-04-22T08:04:57.240Z,50.75
2023-04-22T08:07:32.994Z,53.90
2023-04-22T08:10:02.357Z,57.70
2023-04-22T08:12:31.025Z,56.13
2023-04-22T08:14:59.703Z,54.45
2023-04-22T08:17:29.733Z,51.80
2023-04-22T08:19:58.411Z,51.95
2023-04-22T08:22:27.604Z,44.55
2023-04-22T08:24:55.920Z,45.40
2023-04-22T08:27:24.277Z,43.00
2023-04-22T08:29:52.884Z,43.28
2023-04-22T08:32:22.502Z,38.40
2023-04-22T08:34:54.251Z,38.22
2023-04-22T08:37:27.077Z,34.75
2023-04-22T08:39:55.652Z,34.40
2023-04-22T08:42:24.463Z,34.40
2023-04-22T08:44:53.841Z,33.03
2023-04-22T08:47:22.815Z,29.00
2023-04-22T08:49:54.872Z,28.85
2023-04-22T08:52:23.354Z,25.45
2023-04-22T08:54:52.656Z,21.98
2023-04-22T08:57:21.561Z,19.08
2023-04-22T08:59:51.386Z,20.42
2023-04-22T09:02:22.303Z,20.50
2023-04-22T09:04:55.777Z,20.15
2023-04-22T09:07:26.000Z,22.42
2023-04-22T09:09:54.666Z,21.00
2023-04-22T09:12:23.318Z,18.63
2023-04-22T09:14:52.263Z,19.67
2023-04-22T09:17:31.760Z,20.10
2023-04-22T09:20:02.114Z,20.17
2023-04-22T09:22:38.102Z,19.88
2023-04-22T09:25:07.498Z,19.98
2023-04-22T09:27:37.185Z,19.60
2023-04-22T09:30:10.812Z,22.65
2023-04-22T09:32:40.810Z,21.70
2023-04-22T09:35:10.984Z,21.55
2023-04-22T09:37:48.953Z,22.88
2023-04-22T09:40:20.175Z,24.40
2023-04-22T09:42:54.640Z,29.13
2023-04-22T09:45:33.758Z,30.08
2023-04-22T09:48:03.117Z,30.45
2023-04-22T09:50:32.904Z,38.88
2023-04-22T09:53:02.644Z,42.65
2023-04-22T09:55:33.082Z,42.25
2023-04-22T09:58:06.393Z,40.33
2023-04-22T10:00:35.016Z,39.20
2023-04-22T10:03:04.037Z,36.20
2023-04-22T10:05:37.868Z,38.97
2023-04-22T10:08:11.118Z,31.42
2023-04-22T10:10:40.200Z,30.92
2023-04-22T10:13:08.832Z,24.40
2023-04-22T10:15:38.502Z,15.77
2023-04-22T10:18:08.676Z,21.30
2023-04-22T10:20:39.783Z,16.27
2023-04-22T10:23:13.734Z,12.93
2023-04-22T10:25:42.864Z,16.95
2023-04-22T10:28:12.164Z,20.73
2023-04-22T10:30:42.607Z,19.25
2023-04-22T10:33:31.819Z,16.65
2023-04-22T10:36:18.304Z,17.92
2023-04-22T10:39:05.213Z,16.83
2023-04-22T10:41:36.678Z,16.23
2023-04-22T10:44:08.257Z,15.65
2023-04-22T10:46:55.225Z,16.67
2023-04-22T10:49:24.705Z,17.17
2023-04-22T10:51:55.654Z,19.42
2023-04-22T10:54:42.555Z,18.65
2023-04-22T10:57:14.580Z,18.08
2023-04-22T10:59:44.482Z,19.65
2023-04-22T11:02:13.919Z,21.63
2023-04-22T11:04:42.968Z,22.50
2023-04-22T11:07:18.157Z,21.67
2023-04-22T11:09:47.556Z,18.08
2023-04-22T11:12:34.764Z,19.13
2023-04-22T11:15:07.006Z,19.67
2023-04-22T11:17:35.781Z,18.77
2023-04-22T11:20:04.910Z,19.48
2023-04-22T11:22:37.187Z,20.08
2023-04-22T11:25:06.330Z,20.65
2023-04-22T11:27:34.979Z,21.88
2023-04-22T11:30:05.609Z,23.60
2023-04-22T11:32:34.242Z,30.73
2023-04-22T11:35:05.264Z,31.60
2023-04-22T11:37:41.363Z,29.52
2023-04-22T11:40:27.310Z,28.13
2023-04-22T11:42:57.670Z,25.35
2023-04-22T11:45:28.617Z,30.42
2023-04-22T11:47:57.581Z,28.17
2023-04-22T11:50:27.644Z,29.98
2023-04-22T11:52:57.794Z,29.67
2023-04-22T11:55:30.376Z,29.27
2023-04-22T11:58:00.265Z,36.80
2023-04-22T12:00:33.979Z,24.33
2023-04-22T12:03:03.559Z,21.30
2023-04-22T12:05:40.566Z,22.00
2023-04-22T12:08:10.866Z,21.23
2023-04-22T12:10:46.769Z,24.85
2023-04-22T12:13:22.413Z,27.20
2023-04-22T12:15:55.818Z,30.55
2023-04-22T12:18:30.818Z,31.00
2023-04-22T12:21:02.349Z,29.20
2023-04-22T12:23:31.670Z,25.90
2023-04-22T12:25:59.955Z,24.13
2023-04-22T12:28:28.414Z,24.10
2023-04-22T12:30:58.103Z,26.80
2023-04-22T12:33:26.564Z,27.20
2023-04-22T12:35:54.919Z,26.67
2023-04-22T12:38:23.247Z,24.67
2023-04-22T12:40:52.386Z,26.00
2023-04-22T12:43:22.628Z,24.40
2023-04-22T12:45:51.848Z,25.23
2023-04-22T12:48:21.833Z,27.15
2023-04-22T12:50:50.123Z,25.10
2023-04-22T12:53:18.471Z,24.50
2023-04-22T12:55:46.883Z,24.42
2023-04-22T12:58:15.778Z,22.40
2023-04-22T13:00:44.148Z,22.42
2023-04-22T13:03:12.846Z,20.00
2023-04-22T13:05:42.669Z,16.05
2023-04-22T13:08:11.026Z,16.83
2023-04-22T13:10:39.366Z,15.88
2023-04-22T13:15:39.947Z,17.17
2023-04-22T13:18:08.359Z,17.85
2023-04-22T13:20:37.162Z,18.63
2023-04-22T13:23:08.218Z,16.15
2023-04-22T13:25:36.713Z,17.25
2023-04-22T13:28:05.063Z,13.15
2023-04-22T13:30:34.349Z,13.82
2023-04-22T13:33:02.773Z,11.98
2023-04-22T13:35:31.744Z,11.35
2023-04-22T13:38:00.174Z,11.35
2023-04-22T13:40:30.045Z,10.70
2023-04-22T13:42:58.445Z,11.60
2023-04-22T13:45:26.966Z,10.25
2023-04-22T13:47:55.584Z,11.30
2023-04-22T13:50:26.152Z,10.07
2023-04-22T13:52:54.949Z,10.90
2023-04-22T13:55:23.363Z,12.00
2023-04-22T13:57:54.249Z,10.73
2023-04-22T14:00:22.621Z,10.77
2023-04-22T14:02:51.358Z,12.40
2023-04-22T14:05:21.802Z,12.10
2023-04-22T14:07:50.195Z,12.57
2023-04-22T14:10:20.458Z,13.43
2023-04-22T14:12:50.233Z,11.73
2023-04-22T14:15:20.141Z,12.40
2023-04-22T14:17:51.190Z,11.75
2023-04-22T14:20:25.085Z,12.93
2023-04-22T14:22:53.616Z,12.32
2023-04-22T14:25:22.116Z,12.50
2023-04-22T14:27:50.537Z,12.38
2023-04-22T14:30:21.932Z,11.55
2023-04-22T14:32:52.996Z,12.48
2023-04-22T14:35:21.386Z,13.45
2023-04-22T14:37:49.757Z,12.93
2023-04-22T14:40:20.019Z,12.65
2023-04-22T14:42:48.360Z,12.55
2023-04-22T14:45:16.831Z,12.50
2023-04-22T14:47:46.659Z,13.30
2023-04-22T14:50:15.355Z,13.05
2023-04-22T14:52:44.123Z,14.35
2023-04-22T14:55:22.363Z,12.43
2023-04-22T14:57:56.755Z,12.73
2023-04-22T15:00:25.708Z,13.40
2023-04-22T15:02:56.153Z,11.52
2023-04-22T15:05:24.766Z,11.40
2023-04-22T15:07:53.228Z,13.05
2023-04-22T15:10:21.935Z,12.45
2023-04-22T15:12:50.541Z,12.07
2023-04-22T15:15:19.174Z,11.07
2023-04-22T15:17:50.069Z,11.43
2023-04-22T15:20:20.058Z,12.35
2023-04-22T15:22:48.658Z,13.32
2023-04-22T15:25:18.304Z,12.65
2023-04-22T15:27:47.543Z,13.13
2023-04-22T15:30:16.256Z,14.32
2023-04-22T15:32:44.830Z,12.77
2023-04-22T15:35:14.341Z,12.65
2023-04-22T15:37:45.961Z,13.80
2023-04-22T15:40:14.348Z,14.52
2023-04-22T15:42:42.669Z,14.23
2023-04-22T15:45:11.769Z,14.13
2023-04-22T15:47:42.017Z,15.30
2023-04-22T15:50:11.302Z,13.48
2023-04-22T15:52:40.694Z,12.13
2023-04-22T15:55:11.091Z,13.57
2023-04-22T15:57:39.494Z,12.73
2023-04-22T16:00:13.513Z,12.77
2023-04-22T16:02:43.206Z,13.10
2023-04-22T16:05:12.616Z,12.68
2023-04-22T16:07:41.412Z,13.02
2023-04-22T16:10:12.320Z,13.27
2023-04-22T16:12:41.008Z,13.02
2023-04-22T16:15:10.464Z,13.80
2023-04-22T16:17:39.246Z,11.73
2023-04-22T16:20:08.627Z,12.98
2023-04-22T16:22:37.193Z,12.10
2023-04-22T16:25:06.486Z,12.52
2023-04-22T16:27:36.216Z,11.43
2023-04-22T16:30:05.204Z,11.48
2023-04-22T16:32:33.665Z,11.88
2023-04-22T16:35:02.055Z,11.30
2023-04-22T16:37:32.677Z,11.40
2023-04-22T16:40:01.164Z,11.70
2023-04-22T16:42:32.120Z,11.73
2023-04-22T16:45:01.956Z,10.88
2023-04-22T16:47:30.520Z,12.45
2023-04-22T16:49:58.935Z,12.35
2023-04-22T16:52:27.272Z,12.43
2023-04-22T16:54:55.684Z,12.57
2023-04-22T16:57:24.267Z,11.63
2023-04-22T16:59:52.603Z,12.20
2023-04-22T17:02:22.826Z,11.88
2023-04-22T17:04:51.253Z,12.30
2023-04-22T17:07:19.845Z,12.52
2023-04-22T17:09:48.999Z,13.43
2023-04-22T17:12:17.594Z,13.40
2023-04-22T17:14:45.999Z,14.02
2023-04-22T17:17:14.844Z,13.32
2023-04-22T17:19:44.827Z,13.13
2023-04-22T17:22:13.447Z,12.82
2023-04-22T17:24:42.909Z,13.52
2023-04-22T17:27:14.754Z,14.07
2023-04-22T17:29:46.586Z,12.80
2023-04-22T17:32:15.013Z,13.75
2023-04-22T17:34:44.764Z,13.75
2023-04-22T17:37:13.094Z,12.32
2023-04-22T17:39:42.361Z,14.48
2023-04-22T17:42:10.726Z,13.35
2023-04-22T17:44:39.373Z,12.80
2023-04-22T17:47:08.031Z,12.57
2023-04-22T17:49:36.606Z,13.90
2023-04-22T17:52:06.637Z,13.70
2023-04-22T17:54:35.077Z,14.35
2023-04-22T17:57:03.751Z,13.70
2023-04-22T17:59:32.131Z,14.18
2023-04-22T18:02:01.682Z,13.52
2023-04-22T18:04:30.119Z,14.60
2023-04-22T18:06:58.521Z,14.65
2023-04-22T18:09:28.347Z,14.82
2023-04-22T18:11:58.638Z,14.73
2023-04-22T18:14:27.646Z,16.15
2023-04-22T18:16:56.087Z,15.90
2023-04-22T18:19:24.651Z,16.15
2023-04-22T18:22:00.066Z,16.42
2023-04-22T18:24:30.754Z,16.48
2023-04-22T18:26:59.416Z,17.95
2023-04-22T18:29:27.981Z,16.42
2023-04-22T18:31:56.925Z,17.55
2023-04-22T18:34:25.549Z,18.15
2023-04-22T18:36:53.938Z,18.65
2023-04-22T18:39:22.532Z,19.33
2023-04-22T18:41:54.631Z,19.70
2023-04-22T18:44:23.009Z,18.02
2023-04-22T18:46:53.045Z,19.05
2023-04-22T18:49:21.716Z,20.77
2023-04-22T18:51:52.306Z,19.60
2023-04-22T18:54:20.764Z,21.50
2023-04-22T18:56:51.592Z,22.15
2023-04-22T18:59:21.934Z,21.60
2023-04-22T19:01:51.489Z,22.48
2023-04-22T19:04:20.405Z,21.23
2023-04-22T19:06:48.952Z,22.45
2023-04-22T19:09:17.464Z,23.50
2023-04-22T19:11:45.942Z,30.08
2023-04-22T19:14:14.832Z,25.95
2023-04-22T19:16:48.627Z,27.25
2023-04-22T19:19:17.103Z,29.67
2023-04-22T19:21:45.970Z,30.85
2023-04-22T19:24:16.225Z,34.95
2023-04-22T19:26:46.162Z,31.88
2023-04-22T19:29:17.173Z,39.67
2023-04-22T19:31:46.330Z,41.20
2023-04-22T19:34:16.490Z,40.95
2023-04-22T19:36:45.071Z,39.67
2023-04-22T19:39:13.647Z,39.83
2023-04-22T19:41:43.059Z,41.35
2023-04-22T19:44:11.661Z,38.95
2023-04-22T19:46:43.540Z,38.97
2023-04-22T19:49:12.423Z,38.50
2023-04-22T19:51:43.772Z,36.63
2023-04-22T19:54:12.977Z,39.13
2023-04-22T19:56:41.994Z,39.22
2023-04-22T19:59:10.937Z,37.65
2023-04-22T20:01:44.453Z,36.60
2023-04-22T20:04:13.536Z,39.08
2023-04-22T20:06:45.863Z,38.33
2023-04-22T20:09:15.613Z,39.05
2023-04-22T20:11:44.745Z,38.45
2023-04-22T20:14:14.777Z,38.35
2023-04-22T20:16:44.813Z,38.78
2023-04-22T20:19:13.969Z,38.83
2023-04-22T20:21:45.021Z,39.05
2023-04-22T20:24:19.171Z,39.30
2023-04-22T20:26:49.605Z,39.90
2023-04-22T20:29:19.032Z,39.22
2023-04-22T20:31:47.712Z,39.08
2023-04-22T20:34:16.504Z,40.17
2023-04-22T20:36:46.593Z,38.45
2023-04-22T20:39:15.186Z,40.05
2023-04-22T20:41:44.399Z,39.63
2023-04-22T20:44:14.248Z,39.53
2023-04-22T20:46:42.850Z,38.42
2023-04-22T20:49:11.902Z,38.20
2023-04-22T20:51:40.636Z,39.08
2023-04-22T20:54:21.719Z,38.58
2023-04-22T20:56:57.915Z,40.13
2023-04-22T20:59:26.563Z,41.10
2023-04-22T21:01:55.635Z,39.58
2023-04-22T21:04:25.612Z,39.28
2023-04-22T21:06:54.757Z,34.40
2023-04-22T21:09:28.209Z,34.90
2023-04-22T21:11:57.068Z,34.60
2023-04-22T21:14:26.479Z,34.42
2023-04-22T21:16:57.614Z,34.95
2023-04-22T21:19:28.979Z,31.88
2023-04-22T21:22:00.760Z,32.45
2023-04-22T21:24:31.464Z,32.50
2023-04-22T21:27:01.440Z,34.42
2023-04-22T21:29:30.269Z,32.55
2023-04-22T21:32:08.747Z,35.75
2023-04-22T21:34:38.880Z,33.50
2023-04-22T21:37:08.119Z,33.13
2023-04-22T21:39:38.155Z,33.25
2023-04-22T21:42:08.318Z,35.17
2023-04-22T21:44:38.124Z,33.13
2023-04-22T21:47:07.256Z,34.33
2023-04-22T21:49:35.920Z,31.70
2023-04-22T21:52:04.600Z,33.05
2023-04-22T21:54:33.320Z,30.17
2023-04-22T21:57:03.342Z,32.95
2023-04-22T21:59:31.887Z,32.65
2023-04-22T22:02:00.659Z,31.15
2023-04-22T22:04:29.377Z,30.75
2023-04-22T22:06:58.173Z,31.50
2023-04-22T22:09:27.084Z,31.45
2023-04-22T22:11:55.733Z,30.30
2023-04-22T22:14:25.717Z,31.27
2023-04-22T22:16:55.001Z,33.15
2023-04-22T22:19:27.697Z,30.52
2023-04-22T22:21:56.284Z,33.08
2023-04-22T22:24:24.918Z,31.52
2023-04-22T22:26:53.806Z,30.67
2023-04-22T22:29:22.470Z,30.77
2023-04-22T22:31:52.574Z,38.60
2023-04-22T22:34:21.307Z,55.80
2023-04-22T22:36:49.862Z,67.57
2023-04-22T22:39:18.560Z,73.47
2023-04-22T22:41:47.293Z,78.65
2023-04-22T22:44:15.881Z,77.13
2023-04-22T22:46:44.565Z,78.40
2023-04-22T22:49:14.446Z,76.88
2023-04-22T22:51:43.081Z,75.88
2023-04-22T22:54:11.842Z,76.10
2023-04-22T22:56:40.452Z,75.18
2023-04-22T22:59:09.847Z,78.40
2023-04-22T23:01:38.655Z,75.03
2023-04-22T23:04:07.713Z,76.57
2023-04-22T23:06:37.732Z,78.05
2023-04-22T23:09:07.999Z,83.30
2023-04-22T23:11:36.566Z,88.03
2023-04-22T23:14:05.163Z,100.78
2023-04-22T23:16:35.224Z,111.65
2023-04-22T23:19:03.860Z,117.68
2023-04-22T23:21:33.269Z,121.38
2023-04-22T23:24:07.688Z,125.70
2023-04-22T23:26:36.891Z,126.18
2023-04-22T23:29:05.662Z,128.02
2023-04-22T23:31:35.013Z,130.95
2023-04-22T23:34:04.851Z,125.57
2023-04-22T23:36:34.111Z,124.25
2023-04-22T23:39:02.880Z,118.43
2023-04-22T23:41:32.856Z,123.68
2023-04-22T23:44:01.447Z,123.85
2023-04-22T23:46:30.130Z,124.03
2023-04-22T23:48:59.020Z,118.22
2023-04-22T23:51:27.681Z,112.43
2023-04-22T23:53:56.360Z,114.15
2023-04-22T23:56:25.201Z,112.70
2023-04-22T23:58:55.518Z,115.07
